createdAt,value
2023-03-16T00:00:29.558Z,852.76
2023-03-16T00:01:29.036Z,852.76
2023-03-16T00:02:29.111Z,852.74
2023-03-16T00:03:29.050Z,852.73
2023-03-16T00:04:28.986Z,852.67
2023-03-16T00:05:28.985Z,852.71
2023-03-16T00:06:28.969Z,852.70
2023-03-16T00:07:28.974Z,852.69
2023-03-16T00:08:28.959Z,852.69
2023-03-16T00:09:28.932Z,852.71
2023-03-16T00:10:29.299Z,852.70
2023-03-16T00:11:28.921Z,852.70
2023-03-16T00:12:28.906Z,852.74
2023-03-16T00:13:28.909Z,852.74
2023-03-16T00:14:28.884Z,852.72
2023-03-16T00:15:28.873Z,852.74
2023-03-16T00:16:28.904Z,852.70
2023-03-16T00:17:28.870Z,852.67
2023-03-16T00:18:28.848Z,852.70
2023-03-16T00:19:28.844Z,852.66
2023-03-16T00:20:29.260Z,852.67
2023-03-16T00:21:28.811Z,852.70
2023-03-16T00:22:28.822Z,852.64
2023-03-16T00:23:28.842Z,852.66
2023-03-16T00:24:28.796Z,852.71
2023-03-16T00:25:28.769Z,852.68
2023-03-16T00:26:28.765Z,852.70
2023-03-16T00:27:28.744Z,852.66
2023-03-16T00:28:28.765Z,852.68
2023-03-16T00:29:28.730Z,852.68
2023-03-16T00:30:29.233Z,852.69
2023-03-16T00:31:28.740Z,852.70
2023-03-16T00:32:28.815Z,852.69
2023-03-16T00:33:28.710Z,852.75
2023-03-16T00:34:28.672Z,852.68
2023-03-16T00:35:28.665Z,852.75
2023-03-16T00:36:28.666Z,852.68
2023-03-16T00:37:28.686Z,852.66
2023-03-16T00:38:28.627Z,852.63
2023-03-16T00:39:28.613Z,852.63
2023-03-16T00:40:29.016Z,852.63
2023-03-16T00:41:28.596Z,852.60
2023-03-16T00:42:28.609Z,852.61
2023-03-16T00:43:28.569Z,852.55
2023-03-16T00:44:28.566Z,852.54
2023-03-16T00:45:28.562Z,852.62
2023-03-16T00:46:28.542Z,852.54
2023-03-16T00:47:28.571Z,852.55
2023-03-16T00:48:28.534Z,852.57
2023-03-16T00:49:28.532Z,852.55
2023-03-16T00:50:28.988Z,852.55
2023-03-16T00:51:28.488Z,852.56
2023-03-16T00:52:28.497Z,852.53
2023-03-16T00:53:28.466Z,852.47
2023-03-16T00:54:28.461Z,852.49
2023-03-16T00:55:28.446Z,852.45
2023-03-16T00:56:28.436Z,852.48
2023-03-16T00:57:28.426Z,852.49
2023-03-16T00:58:28.428Z,852.46
2023-03-16T00:59:28.408Z,852.48
2023-03-16T01:00:28.909Z,852.45
2023-03-16T01:01:28.426Z,852.49
2023-03-16T01:02:28.373Z,852.49
2023-03-16T01:03:28.479Z,852.49
2023-03-16T01:04:28.350Z,852.43
2023-03-16T01:05:28.369Z,852.40
2023-03-16T01:06:28.339Z,852.46
2023-03-16T01:07:28.337Z,852.44
2023-03-16T01:08:28.309Z,852.46
2023-03-16T01:09:28.301Z,852.38
2023-03-16T01:10:28.561Z,852.45
2023-03-16T01:11:28.292Z,852.44
2023-03-16T01:12:28.276Z,852.41
2023-03-16T01:13:28.276Z,852.42
2023-03-16T01:14:28.246Z,852.39
2023-03-16T01:15:28.244Z,852.37
2023-03-16T01:16:28.302Z,852.40
2023-03-16T01:17:28.221Z,852.39
2023-03-16T01:18:28.219Z,852.38
2023-03-16T01:19:28.216Z,852.42
2023-03-16T01:20:28.516Z,852.36
2023-03-16T01:21:28.207Z,852.33
2023-03-16T01:22:28.170Z,852.38
2023-03-16T01:23:28.156Z,852.36
2023-03-16T01:24:28.168Z,852.33
2023-03-16T01:25:28.135Z,852.32
2023-03-16T01:26:28.126Z,852.33
2023-03-16T01:27:28.114Z,852.29
2023-03-16T01:28:28.103Z,852.29
2023-03-16T01:29:28.097Z,852.31
2023-03-16T01:30:28.498Z,852.31
2023-03-16T01:31:28.074Z,852.32
2023-03-16T01:32:28.077Z,852.28
2023-03-16T01:33:28.074Z,852.26
2023-03-16T01:34:28.049Z,852.23
2023-03-16T01:35:28.055Z,852.22
2023-03-16T01:36:28.044Z,852.21
2023-03-16T01:37:28.030Z,852.20
2023-03-16T01:38:28.004Z,852.18
2023-03-16T01:39:27.993Z,852.16
2023-03-16T01:40:28.187Z,852.17
2023-03-16T01:41:27.969Z,852.19
2023-03-16T01:42:27.988Z,852.15
2023-03-16T01:43:27.948Z,852.12
2023-03-16T01:44:27.934Z,852.15
2023-03-16T01:45:27.932Z,852.13
2023-03-16T01:46:28.022Z,852.18
2023-03-16T01:47:27.908Z,852.08
2023-03-16T01:48:27.920Z,852.11
2023-03-16T01:49:27.888Z,852.10
2023-03-16T01:50:28.153Z,852.06
2023-03-16T01:51:27.863Z,852.11
2023-03-16T01:52:27.849Z,852.08
2023-03-16T01:53:27.864Z,852.04
2023-03-16T01:54:27.857Z,852.05
2023-03-16T01:55:27.833Z,852.03
2023-03-16T01:56:27.814Z,852.06
2023-03-16T01:57:27.804Z,852.07
2023-03-16T01:58:27.789Z,852.08
2023-03-16T01:59:27.781Z,852.05
2023-03-16T02:00:28.118Z,852.02
2023-03-16T02:01:27.824Z,852.01
2023-03-16T02:02:27.747Z,852.04
2023-03-16T02:03:27.748Z,851.99
2023-03-16T02:04:27.808Z,852.05
2023-03-16T02:05:27.719Z,852.03
2023-03-16T02:06:27.712Z,852.04
2023-03-16T02:07:27.718Z,852.04
2023-03-16T02:08:27.683Z,851.95
2023-03-16T02:09:27.700Z,852.05
2023-03-16T02:10:27.911Z,852.01
2023-03-16T02:11:27.660Z,852.01
2023-03-16T02:12:27.655Z,852.00
2023-03-16T02:13:27.658Z,851.98
2023-03-16T02:14:27.622Z,851.96
2023-03-16T02:15:27.736Z,851.97
2023-03-16T02:16:27.630Z,851.99
2023-03-16T02:17:27.594Z,851.92
2023-03-16T02:18:27.580Z,851.96
2023-03-16T02:19:27.587Z,851.91
2023-03-16T02:20:27.792Z,851.95
2023-03-16T02:21:27.589Z,851.94
2023-03-16T02:22:27.555Z,851.97
2023-03-16T02:23:27.532Z,851.94
2023-03-16T02:24:27.519Z,851.94
2023-03-16T02:25:27.540Z,851.88
2023-03-16T02:26:27.511Z,851.93
2023-03-16T02:27:27.498Z,851.93
2023-03-16T02:28:27.476Z,851.95
2023-03-16T02:29:27.482Z,851.93
2023-03-16T02:30:27.694Z,851.94
2023-03-16T02:31:27.488Z,851.94
2023-03-16T02:32:27.521Z,851.96
2023-03-16T02:33:27.425Z,851.95
2023-03-16T02:34:27.417Z,851.97
2023-03-16T02:35:27.425Z,851.98
2023-03-16T02:36:27.413Z,852.01
2023-03-16T02:37:27.414Z,851.98
2023-03-16T02:38:27.374Z,851.96
2023-03-16T02:39:27.370Z,851.98
2023-03-16T02:40:27.750Z,851.95
2023-03-16T02:41:27.370Z,851.95
2023-03-16T02:42:27.340Z,851.95
2023-03-16T02:43:27.357Z,851.98
2023-03-16T02:44:27.309Z,851.93
2023-03-16T02:45:27.337Z,851.90
2023-03-16T02:46:27.384Z,851.92
2023-03-16T02:47:27.277Z,851.88
2023-03-16T02:48:27.272Z,851.92
2023-03-16T02:49:27.309Z,851.92
2023-03-16T02:50:27.524Z,851.91
2023-03-16T02:51:27.238Z,851.91
2023-03-16T02:52:27.230Z,851.87
2023-03-16T02:53:27.217Z,851.91
2023-03-16T02:54:27.229Z,851.89
2023-03-16T02:55:27.226Z,851.88
2023-03-16T02:56:27.186Z,851.90
2023-03-16T02:57:27.194Z,851.90
2023-03-16T02:58:27.166Z,851.89
2023-03-16T02:59:27.166Z,851.92
2023-03-16T03:00:27.465Z,851.95
2023-03-16T03:01:27.144Z,851.90
2023-03-16T03:02:27.124Z,851.94
2023-03-16T03:03:27.184Z,851.95
2023-03-16T03:04:27.120Z,851.93
2023-03-16T03:05:27.103Z,851.94
2023-03-16T03:06:27.103Z,851.99
2023-03-16T03:07:27.083Z,851.96
2023-03-16T03:08:27.070Z,851.98
2023-03-16T03:09:27.050Z,851.99
2023-03-16T03:10:27.296Z,852.05
2023-03-16T03:11:27.033Z,852.02
2023-03-16T03:12:27.038Z,852.04
2023-03-16T03:13:27.030Z,852.03
2023-03-16T03:14:27.015Z,852.02
2023-03-16T03:15:26.996Z,852.03
2023-03-16T03:16:27.048Z,851.97
2023-03-16T03:17:26.965Z,851.96
2023-03-16T03:18:26.956Z,852.04
2023-03-16T03:19:26.947Z,852.00
2023-03-16T03:20:27.211Z,852.03
2023-03-16T03:21:26.922Z,852.06
2023-03-16T03:22:26.917Z,852.08
2023-03-16T03:23:26.904Z,852.06
2023-03-16T03:24:26.895Z,852.07
2023-03-16T03:25:26.929Z,852.07
2023-03-16T03:26:26.887Z,852.02
2023-03-16T03:27:26.944Z,852.07
2023-03-16T03:28:26.854Z,852.07
2023-03-16T03:29:26.870Z,852.05
2023-03-16T03:30:27.085Z,851.98
2023-03-16T03:31:26.872Z,852.04
2023-03-16T03:32:26.836Z,852.04
2023-03-16T03:33:26.799Z,852.08
2023-03-16T03:34:26.809Z,852.07
2023-03-16T03:35:26.816Z,852.03
2023-03-16T03:36:26.768Z,852.05
2023-03-16T03:37:26.780Z,852.10
2023-03-16T03:38:26.753Z,852.06
2023-03-16T03:39:26.733Z,852.09
2023-03-16T03:40:27.123Z,852.07
2023-03-16T03:41:26.724Z,852.08
2023-03-16T03:42:26.719Z,852.08
2023-03-16T03:43:26.704Z,852.03
2023-03-16T03:44:26.685Z,852.08
2023-03-16T03:45:26.816Z,852.10
2023-03-16T03:46:26.778Z,852.08
2023-03-16T03:47:26.649Z,852.08
2023-03-16T03:48:26.656Z,852.13
2023-03-16T03:49:26.634Z,852.13
2023-03-16T03:50:27.059Z,852.13
2023-03-16T03:51:26.608Z,852.16
2023-03-16T03:52:26.605Z,852.16
2023-03-16T03:53:26.615Z,852.17
2023-03-16T03:54:26.596Z,852.14
2023-03-16T03:55:26.572Z,852.20
2023-03-16T03:56:26.564Z,852.12
2023-03-16T03:57:26.555Z,852.16
2023-03-16T03:58:26.535Z,852.19
2023-03-16T03:59:26.523Z,852.18
2023-03-16T04:00:26.831Z,852.13
2023-03-16T04:01:26.524Z,852.11
2023-03-16T04:02:26.634Z,852.13
2023-03-16T04:03:26.563Z,852.15
2023-03-16T04:04:26.476Z,852.20
2023-03-16T04:05:26.457Z,852.16
2023-03-16T04:06:26.456Z,852.16
2023-03-16T04:07:26.437Z,852.17
2023-03-16T04:08:26.443Z,852.19
2023-03-16T04:09:26.411Z,852.13
2023-03-16T04:10:26.720Z,852.14
2023-03-16T04:11:26.394Z,852.10
2023-03-16T04:12:26.402Z,852.15
2023-03-16T04:13:26.388Z,852.15
2023-03-16T04:14:26.363Z,852.14
2023-03-16T04:15:26.355Z,852.18
2023-03-16T04:16:26.378Z,852.18
2023-03-16T04:17:26.352Z,852.21
2023-03-16T04:18:26.337Z,852.19
2023-03-16T04:19:26.317Z,852.22
2023-03-16T04:20:26.646Z,852.23
2023-03-16T04:21:26.286Z,852.17
2023-03-16T04:22:26.280Z,852.18
2023-03-16T04:23:26.266Z,852.17
2023-03-16T04:24:26.271Z,852.17
2023-03-16T04:25:26.271Z,852.16
2023-03-16T04:26:26.235Z,852.10
2023-03-16T04:27:26.223Z,852.12
2023-03-16T04:28:26.218Z,852.15
2023-03-16T04:29:26.204Z,852.16
2023-03-16T04:30:26.675Z,852.13
2023-03-16T04:31:26.194Z,852.12
2023-03-16T04:32:26.285Z,852.10
2023-03-16T04:33:26.181Z,852.09
2023-03-16T04:34:26.154Z,852.10
2023-03-16T04:35:26.140Z,852.09
2023-03-16T04:36:26.164Z,852.08
2023-03-16T04:37:26.118Z,852.08
2023-03-16T04:38:26.132Z,852.06
2023-03-16T04:39:26.112Z,852.03
2023-03-16T04:40:26.470Z,852.01
2023-03-16T04:41:26.074Z,852.03
2023-03-16T04:42:26.079Z,852.01
2023-03-16T04:43:26.055Z,851.97
2023-03-16T04:44:26.079Z,851.98
2023-03-16T04:45:26.050Z,851.96
2023-03-16T04:46:26.082Z,851.95
2023-03-16T04:47:26.013Z,851.93
2023-03-16T04:48:26.023Z,851.97
2023-03-16T04:49:26.009Z,851.98
2023-03-16T04:50:26.412Z,851.92
2023-03-16T04:51:25.988Z,851.93
2023-03-16T04:52:25.963Z,851.93
2023-03-16T04:53:25.947Z,851.97
2023-03-16T04:54:25.960Z,851.94
2023-03-16T04:55:26.195Z,851.94
2023-03-16T04:56:25.923Z,852.01
2023-03-16T04:57:25.906Z,851.95
2023-03-16T04:58:25.898Z,851.88
2023-03-16T04:59:25.898Z,851.91
2023-03-16T05:00:26.125Z,851.90
2023-03-16T05:01:25.905Z,851.92
2023-03-16T05:02:25.852Z,851.97
2023-03-16T05:03:25.839Z,851.92
2023-03-16T05:04:25.848Z,851.95
2023-03-16T05:05:25.925Z,851.93
2023-03-16T05:06:25.817Z,851.90
2023-03-16T05:07:25.799Z,851.94
2023-03-16T05:08:25.789Z,851.96
2023-03-16T05:09:25.781Z,851.92
2023-03-16T05:10:26.208Z,851.93
2023-03-16T05:11:25.754Z,851.93
2023-03-16T05:12:25.756Z,851.95
2023-03-16T05:13:25.741Z,851.88
2023-03-16T05:14:25.725Z,851.88
2023-03-16T05:15:25.733Z,851.84
2023-03-16T05:16:25.745Z,851.86
2023-03-16T05:17:25.695Z,851.85
2023-03-16T05:18:25.689Z,851.84
2023-03-16T05:19:25.692Z,851.84
2023-03-16T05:20:25.673Z,851.83
2023-03-16T05:21:25.681Z,851.81
2023-03-16T05:22:25.648Z,851.84
2023-03-16T05:23:25.629Z,851.81
2023-03-16T05:24:25.637Z,851.81
2023-03-16T05:25:25.626Z,851.86
2023-03-16T05:26:25.602Z,851.79
2023-03-16T05:27:25.601Z,851.87
2023-03-16T05:28:25.588Z,851.86
2023-03-16T05:29:25.590Z,851.81
2023-03-16T05:30:25.570Z,851.86
2023-03-16T05:31:25.592Z,851.82
2023-03-16T05:32:25.669Z,851.85
2023-03-16T05:33:25.525Z,851.77
2023-03-16T05:34:25.513Z,851.77
2023-03-16T05:35:25.518Z,851.80
2023-03-16T05:36:25.497Z,851.78
2023-03-16T05:37:25.509Z,851.80
2023-03-16T05:38:25.485Z,851.82
2023-03-16T05:39:25.466Z,851.82
2023-03-16T05:40:25.474Z,851.78
2023-03-16T05:41:25.454Z,851.84
2023-03-16T05:42:25.428Z,851.85
2023-03-16T05:43:25.420Z,851.83
2023-03-16T05:44:25.406Z,851.88
2023-03-16T05:45:25.405Z,851.85
2023-03-16T05:46:25.470Z,851.85
2023-03-16T05:47:25.378Z,851.81
2023-03-16T05:48:25.370Z,851.81
2023-03-16T05:49:25.357Z,851.82
2023-03-16T05:50:25.414Z,851.81
2023-03-16T05:51:25.345Z,851.81
2023-03-16T05:52:25.401Z,851.81
2023-03-16T05:53:25.345Z,851.85
2023-03-16T05:54:25.307Z,851.88
2023-03-16T05:55:25.313Z,851.85
2023-03-16T05:56:25.299Z,851.82
2023-03-16T05:57:25.281Z,851.83
2023-03-16T05:58:25.259Z,851.84
2023-03-16T05:59:25.255Z,851.80
2023-03-16T06:00:25.254Z,851.82
2023-03-16T06:01:25.254Z,851.81
2023-03-16T06:02:25.281Z,851.82
2023-03-16T06:03:25.226Z,851.86
2023-03-16T06:04:25.310Z,851.81
2023-03-16T06:05:25.259Z,851.86
2023-03-16T06:06:25.180Z,851.83
2023-03-16T06:07:25.255Z,851.86
2023-03-16T06:08:25.172Z,851.84
2023-03-16T06:09:25.216Z,851.90
2023-03-16T06:10:25.137Z,851.91
2023-03-16T06:11:25.139Z,851.93
2023-03-16T06:12:25.114Z,851.93
2023-03-16T06:13:25.109Z,851.91
2023-03-16T06:14:25.099Z,851.94
2023-03-16T06:15:25.192Z,851.91
2023-03-16T06:16:25.192Z,851.94
2023-03-16T06:17:25.064Z,851.98
2023-03-16T06:18:25.060Z,852.00
2023-03-16T06:19:25.044Z,851.95
2023-03-16T06:20:25.049Z,852.00
2023-03-16T06:21:25.038Z,852.03
2023-03-16T06:22:25.165Z,852.01
2023-03-16T06:23:25.021Z,851.98
2023-03-16T06:24:24.993Z,851.96
2023-03-16T06:25:25.032Z,851.95
2023-03-16T06:26:24.987Z,851.94
2023-03-16T06:27:24.983Z,851.93
2023-03-16T06:28:24.951Z,851.95
2023-03-16T06:29:24.952Z,851.94
2023-03-16T06:30:24.966Z,851.94
2023-03-16T06:31:24.954Z,851.95
2023-03-16T06:32:24.960Z,851.97
2023-03-16T06:33:24.910Z,851.99
2023-03-16T06:34:24.884Z,851.93
2023-03-16T06:35:24.885Z,851.95
2023-03-16T06:36:24.861Z,852.05
2023-03-16T06:37:24.876Z,851.98
2023-03-16T06:38:24.856Z,852.01
2023-03-16T06:39:24.839Z,851.98
2023-03-16T06:40:24.832Z,851.99
2023-03-16T06:41:24.840Z,852.00
2023-03-16T06:42:24.800Z,852.02
2023-03-16T06:43:24.873Z,851.96
2023-03-16T06:44:24.781Z,851.95
2023-03-16T06:45:24.840Z,851.94
2023-03-16T06:46:24.787Z,851.93
2023-03-16T06:47:24.778Z,851.94
2023-03-16T06:48:24.740Z,851.94
2023-03-16T06:49:24.735Z,851.93
2023-03-16T06:50:24.718Z,851.92
2023-03-16T06:51:24.727Z,851.95
2023-03-16T06:52:24.699Z,851.95
2023-03-16T06:53:24.723Z,851.94
2023-03-16T06:54:24.680Z,851.93
2023-03-16T06:55:24.666Z,851.90
2023-03-16T06:56:24.668Z,851.97
2023-03-16T06:57:24.673Z,851.94
2023-03-16T06:58:24.635Z,851.91
2023-03-16T06:59:24.638Z,851.91
2023-03-16T07:00:24.613Z,851.91
2023-03-16T07:01:24.695Z,851.92
2023-03-16T07:02:24.604Z,851.98
2023-03-16T07:03:24.591Z,851.92
2023-03-16T07:04:24.700Z,851.98
2023-03-16T07:05:24.567Z,851.91
2023-03-16T07:06:24.568Z,851.92
2023-03-16T07:07:24.546Z,851.92
2023-03-16T07:08:24.527Z,851.91
2023-03-16T07:09:24.532Z,851.88
2023-03-16T07:10:24.561Z,851.89
2023-03-16T07:11:24.506Z,851.91
2023-03-16T07:12:24.483Z,851.89
2023-03-16T07:13:24.546Z,851.90
2023-03-16T07:14:24.462Z,851.86
2023-03-16T07:15:24.452Z,851.89
2023-03-16T07:16:24.492Z,851.94
2023-03-16T07:17:24.435Z,851.91
2023-03-16T07:18:24.460Z,851.92
2023-03-16T07:19:24.425Z,851.95
2023-03-16T07:20:24.402Z,851.92
2023-03-16T07:21:24.390Z,851.92
2023-03-16T07:22:24.377Z,851.91
2023-03-16T07:23:24.371Z,851.91
2023-03-16T07:24:24.397Z,851.92
2023-03-16T07:25:24.361Z,851.94
2023-03-16T07:26:24.335Z,851.90
2023-03-16T07:27:24.333Z,851.91
2023-03-16T07:28:24.310Z,851.96
2023-03-16T07:29:24.324Z,851.95
2023-03-16T07:30:24.324Z,851.89
2023-03-16T07:31:24.356Z,851.94
2023-03-16T07:32:24.319Z,851.92
2023-03-16T07:33:24.270Z,851.92
2023-03-16T07:34:24.244Z,851.93
2023-03-16T07:35:24.246Z,851.99
2023-03-16T07:36:24.253Z,851.94
2023-03-16T07:37:25.618Z,851.94
2023-03-16T07:38:24.204Z,851.96
2023-03-16T07:39:24.199Z,851.95
2023-03-16T07:40:24.182Z,851.99
2023-03-16T07:41:24.173Z,851.99
2023-03-16T07:42:24.211Z,851.96
2023-03-16T07:43:24.152Z,852.03
2023-03-16T07:44:24.150Z,851.96
2023-03-16T07:45:24.150Z,852.04
2023-03-16T07:46:24.162Z,852.04
2023-03-16T07:47:26.391Z,852.07
2023-03-16T07:48:24.153Z,852.05
2023-03-16T07:49:24.096Z,852.03
2023-03-16T07:50:24.076Z,852.07
2023-03-16T07:51:24.123Z,852.10
2023-03-16T07:52:24.052Z,852.05
2023-03-16T07:53:24.045Z,852.08
2023-03-16T07:54:24.054Z,852.08
2023-03-16T07:55:24.027Z,852.09
2023-03-16T07:56:24.011Z,852.14
2023-03-16T07:57:24.018Z,852.12
2023-03-16T07:58:23.986Z,852.14
2023-03-16T07:59:23.995Z,852.14
2023-03-16T08:00:23.971Z,852.11
2023-03-16T08:01:23.997Z,852.09
2023-03-16T08:02:23.990Z,852.14
2023-03-16T08:03:23.980Z,852.14
2023-03-16T08:04:23.926Z,852.15
2023-03-16T08:05:25.600Z,852.14
2023-03-16T08:06:23.905Z,852.13
2023-03-16T08:07:23.909Z,852.13
2023-03-16T08:08:23.887Z,852.12
2023-03-16T08:09:23.876Z,852.14
2023-03-16T08:10:23.862Z,852.16
2023-03-16T08:11:23.984Z,852.11
2023-03-16T08:12:23.939Z,852.14
2023-03-16T08:13:23.865Z,852.15
2023-03-16T08:14:23.827Z,852.14
2023-03-16T08:15:23.825Z,852.14
2023-03-16T08:16:23.901Z,852.11
2023-03-16T08:17:23.826Z,852.10
2023-03-16T08:18:23.785Z,852.15
2023-03-16T08:19:23.786Z,852.15
2023-03-16T08:20:23.761Z,852.14
2023-03-16T08:21:23.765Z,852.18
2023-03-16T08:22:23.737Z,852.19
2023-03-16T08:23:23.752Z,852.19
2023-03-16T08:24:23.719Z,852.19
2023-03-16T08:25:23.726Z,852.15
2023-03-16T08:26:23.697Z,852.20
2023-03-16T08:27:23.689Z,852.16
2023-03-16T08:28:23.672Z,852.16
2023-03-16T08:29:23.688Z,852.19
2023-03-16T08:30:23.654Z,852.14
2023-03-16T08:31:23.720Z,852.16
2023-03-16T08:32:23.700Z,852.14
2023-03-16T08:33:23.775Z,852.14
2023-03-16T08:34:23.628Z,852.12
2023-03-16T08:35:23.639Z,852.11
2023-03-16T08:36:23.592Z,852.11
2023-03-16T08:37:23.590Z,852.14
2023-03-16T08:38:23.611Z,852.13
2023-03-16T08:39:23.563Z,852.12
2023-03-16T08:40:23.559Z,852.17
2023-03-16T08:41:23.540Z,852.13
2023-03-16T08:42:23.559Z,852.13
2023-03-16T08:43:23.518Z,852.11
2023-03-16T08:44:23.506Z,852.23
2023-03-16T08:45:23.516Z,852.16
2023-03-16T08:46:23.524Z,852.17
2023-03-16T08:47:23.486Z,852.14
2023-03-16T08:48:23.490Z,852.11
2023-03-16T08:49:23.474Z,852.07
2023-03-16T08:50:23.436Z,852.10
2023-03-16T08:51:23.429Z,852.08
2023-03-16T08:52:23.416Z,852.04
2023-03-16T08:53:23.424Z,852.03
2023-03-16T08:54:23.418Z,852.04
2023-03-16T08:55:23.388Z,852.04
2023-03-16T08:56:23.374Z,852.10
2023-03-16T08:57:23.389Z,852.10
2023-03-16T08:58:23.366Z,852.13
2023-03-16T08:59:29.717Z,852.12
2023-03-16T09:00:24.358Z,852.13
2023-03-16T09:01:23.357Z,852.12
2023-03-16T09:02:23.316Z,852.12
2023-03-16T09:03:23.310Z,852.11
2023-03-16T09:04:23.484Z,852.16
2023-03-16T09:05:23.420Z,852.15
2023-03-16T09:06:23.296Z,852.14
2023-03-16T09:07:23.256Z,852.15
2023-03-16T09:08:23.244Z,852.17
2023-03-16T09:09:23.254Z,852.16
2023-03-16T09:10:23.272Z,852.07
2023-03-16T09:11:23.222Z,852.07
2023-03-16T09:12:23.224Z,852.08
2023-03-16T09:13:23.190Z,852.07
2023-03-16T09:14:23.183Z,852.13
2023-03-16T09:15:23.188Z,852.19
2023-03-16T09:16:23.194Z,852.20
2023-03-16T09:17:23.150Z,852.17
2023-03-16T09:18:23.159Z,852.15
2023-03-16T09:19:23.125Z,852.20
2023-03-16T09:20:26.923Z,852.22
2023-03-16T09:21:24.141Z,852.17
2023-03-16T09:22:23.123Z,852.15
2023-03-16T09:23:23.113Z,852.28
2023-03-16T09:24:23.102Z,852.26
2023-03-16T09:25:23.063Z,852.25
2023-03-16T09:26:23.123Z,852.25
2023-03-16T09:27:23.201Z,852.25
2023-03-16T09:28:23.024Z,852.22
2023-03-16T09:29:23.054Z,852.22
2023-03-16T09:30:23.004Z,852.20
2023-03-16T09:31:23.137Z,852.21
2023-03-16T09:32:22.990Z,852.24
2023-03-16T09:33:22.972Z,852.23
2023-03-16T09:35:22.964Z,852.23
2023-03-16T09:36:22.942Z,852.24
2023-03-16T09:37:22.954Z,852.20
2023-03-16T09:38:22.952Z,852.19
2023-03-16T09:39:22.918Z,852.24
2023-03-16T09:40:23.159Z,852.24
2023-03-16T09:41:22.890Z,852.23
2023-03-16T09:42:22.879Z,852.22
2023-03-16T09:43:22.869Z,852.21
2023-03-16T09:44:22.888Z,852.19
2023-03-16T09:45:22.864Z,852.19
2023-03-16T09:46:22.895Z,852.22
2023-03-16T09:47:22.821Z,852.19
2023-03-16T09:48:22.816Z,852.23
2023-03-16T09:49:22.816Z,852.22
2023-03-16T09:50:22.845Z,852.19
2023-03-16T09:51:22.820Z,852.18
2023-03-16T09:52:22.801Z,852.09
2023-03-16T09:53:22.782Z,852.10
2023-03-16T09:54:22.761Z,852.11
2023-03-16T09:55:22.738Z,852.05
2023-03-16T09:56:22.741Z,852.10
2023-03-16T09:57:22.714Z,852.09
2023-03-16T09:58:22.737Z,852.11
2023-03-16T09:59:22.691Z,852.08
2023-03-16T10:00:22.693Z,852.06
2023-03-16T10:01:22.767Z,852.10
2023-03-16T10:02:22.679Z,852.08
2023-03-16T10:03:22.658Z,852.12
2023-03-16T10:04:22.770Z,852.10
2023-03-16T10:05:22.627Z,852.07
2023-03-16T10:06:22.624Z,852.14
2023-03-16T10:07:22.613Z,852.08
2023-03-16T10:08:22.616Z,852.11
2023-03-16T10:09:22.607Z,852.05
2023-03-16T10:10:22.692Z,852.05
2023-03-16T10:11:22.561Z,852.01
2023-03-16T10:12:22.551Z,852.02
2023-03-16T10:13:22.556Z,852.00
2023-03-16T10:14:22.549Z,851.98
2023-03-16T10:15:22.535Z,852.01
2023-03-16T10:16:22.643Z,852.03
2023-03-16T10:17:22.501Z,852.01
2023-03-16T10:18:22.503Z,852.04
2023-03-16T10:19:22.480Z,852.01
2023-03-16T10:20:22.567Z,852.00
2023-03-16T10:21:22.457Z,851.97
2023-03-16T10:22:22.467Z,851.94
2023-03-16T10:23:22.431Z,852.01
2023-03-16T10:24:22.456Z,851.99
2023-03-16T10:25:22.453Z,851.98
2023-03-16T10:26:22.401Z,851.96
2023-03-16T10:27:22.387Z,851.98
2023-03-16T10:28:22.398Z,851.95
2023-03-16T10:29:22.368Z,851.93
2023-03-16T10:30:22.560Z,851.97
2023-03-16T10:31:22.385Z,852.00
2023-03-16T10:32:22.339Z,851.96
2023-03-16T10:33:22.325Z,851.89
2023-03-16T10:34:22.329Z,851.95
2023-03-16T10:35:22.305Z,851.92
2023-03-16T10:36:22.318Z,851.92
2023-03-16T10:37:22.277Z,851.90
2023-03-16T10:38:22.267Z,851.91
2023-03-16T10:39:22.255Z,851.89
2023-03-16T10:40:22.279Z,851.87
2023-03-16T10:41:22.278Z,851.88
2023-03-16T10:42:22.225Z,851.87
2023-03-16T10:43:22.213Z,851.82
2023-03-16T10:44:22.205Z,851.81
2023-03-16T10:45:22.196Z,851.85
2023-03-16T10:46:22.335Z,851.81
2023-03-16T10:47:22.298Z,851.82
2023-03-16T10:48:22.200Z,851.81
2023-03-16T10:49:22.178Z,851.80
2023-03-16T10:50:22.144Z,851.80
2023-03-16T10:51:22.133Z,851.80
2023-03-16T10:52:22.137Z,851.79
2023-03-16T10:53:22.109Z,851.78
2023-03-16T10:54:22.111Z,851.82
2023-03-16T10:55:22.107Z,851.78
2023-03-16T10:56:22.100Z,851.80
2023-03-16T10:57:22.093Z,851.85
2023-03-16T10:58:22.073Z,851.86
2023-03-16T10:59:22.049Z,851.83
2023-03-16T11:00:22.041Z,851.84
2023-03-16T11:01:22.076Z,851.86
2023-03-16T11:02:22.018Z,851.84
2023-03-16T11:03:22.002Z,851.85
2023-03-16T11:04:22.064Z,851.83
2023-03-16T11:05:21.984Z,851.77
2023-03-16T11:06:21.976Z,851.76
2023-03-16T11:07:21.972Z,851.75
2023-03-16T11:08:21.966Z,851.73
2023-03-16T11:09:21.937Z,851.71
2023-03-16T11:10:21.967Z,851.68
2023-03-16T11:11:21.920Z,851.71
2023-03-16T11:12:21.920Z,851.69
2023-03-16T11:13:21.940Z,851.67
2023-03-16T11:14:21.886Z,851.67
2023-03-16T11:15:26.080Z,851.72
2023-03-16T11:16:21.936Z,851.72
2023-03-16T11:17:21.852Z,851.73
2023-03-16T11:18:21.844Z,851.71
2023-03-16T11:19:21.830Z,851.72
2023-03-16T11:20:21.823Z,851.71
2023-03-16T11:21:21.808Z,851.72
2023-03-16T11:22:21.852Z,851.69
2023-03-16T11:23:21.789Z,851.70
2023-03-16T11:24:21.778Z,851.72
2023-03-16T11:25:21.767Z,851.68
2023-03-16T11:26:21.763Z,851.69
2023-03-16T11:27:21.744Z,851.69
2023-03-16T11:28:21.770Z,851.57
2023-03-16T11:29:21.774Z,851.60
2023-03-16T11:30:21.716Z,851.62
2023-03-16T11:31:21.749Z,851.59
2023-03-16T11:32:21.713Z,851.60
2023-03-16T11:33:21.681Z,851.56
2023-03-16T11:34:21.690Z,851.60
2023-03-16T11:35:21.661Z,851.54
2023-03-16T11:36:21.725Z,851.56
2023-03-16T11:37:21.643Z,851.55
2023-03-16T11:38:21.648Z,851.50
2023-03-16T11:39:21.622Z,851.51
2023-03-16T11:40:21.631Z,851.55
2023-03-16T11:41:21.597Z,851.55
2023-03-16T11:42:21.590Z,851.53
2023-03-16T11:43:21.591Z,851.51
2023-03-16T11:44:21.583Z,851.48
2023-03-16T11:45:21.579Z,851.49
2023-03-16T11:46:21.601Z,851.51
2023-03-16T11:47:21.554Z,851.52
2023-03-16T11:48:21.527Z,851.52
2023-03-16T11:49:21.529Z,851.47
2023-03-16T11:50:21.507Z,851.48
2023-03-16T11:51:21.504Z,851.45
2023-03-16T11:52:21.501Z,851.47
2023-03-16T11:53:21.482Z,851.52
2023-03-16T11:54:21.465Z,851.46
2023-03-16T11:55:21.456Z,851.47
2023-03-16T11:56:21.436Z,851.47
2023-03-16T11:57:21.436Z,851.43
2023-03-16T11:58:21.424Z,851.45
2023-03-16T11:59:21.412Z,851.38
2023-03-16T12:00:21.390Z,851.40
2023-03-16T12:01:21.527Z,851.38
2023-03-16T12:02:21.623Z,851.36
2023-03-16T12:03:21.392Z,851.38
2023-03-16T12:04:21.384Z,851.39
2023-03-16T12:05:21.332Z,851.34
2023-03-16T12:06:23.315Z,851.37
2023-03-16T12:07:21.312Z,851.37
2023-03-16T12:08:21.304Z,851.34
2023-03-16T12:09:21.289Z,851.34
2023-03-16T12:10:21.319Z,851.33
2023-03-16T12:11:21.264Z,851.29
2023-03-16T12:12:21.269Z,851.26
2023-03-16T12:13:21.243Z,851.31
2023-03-16T12:14:21.242Z,851.30
2023-03-16T12:15:21.222Z,851.31
2023-03-16T12:16:21.311Z,851.25
2023-03-16T12:17:21.227Z,851.32
2023-03-16T12:18:21.260Z,851.30
2023-03-16T12:19:21.174Z,851.32
2023-03-16T12:20:21.171Z,851.29
2023-03-16T12:21:21.153Z,851.31
2023-03-16T12:22:21.163Z,851.32
2023-03-16T12:23:21.131Z,851.29
2023-03-16T12:24:21.155Z,851.27
2023-03-16T12:25:21.108Z,851.29
2023-03-16T12:26:21.102Z,851.24
2023-03-16T12:27:21.084Z,851.22
2023-03-16T12:28:21.086Z,851.25
2023-03-16T12:29:21.076Z,851.23